Iblea — IBFK — position and weather

sailwx.info

Track history (hours):
 
Tides and Currents Weather Stations Pressure Air Temp Water Temp Dewpoint Dewpoint Depression Visibility Wind Speed Wind Dir Waves Ship Positions

Iblea

Last reported at 2015-Mar-29 08:22 UTC. Time now 2015-Mar-30 20:04 UTC.
Position N 37°04' W 006°52'.

Length 176 m; draft 7.3 m.

Type: Ship (hazmat cat C). MMSI: 247087700.

Date/timePositionNaut miles runAvg speedWind from/ knotsBaromVisibWave heightAir tempDewpointWater temp
2015-Mar-29 08:22N 37°04' W 006°52'0 0.0
2015-Mar-29 07:28N 37°04' W 006°52'0 0.0
2015-Mar-29 06:28N 37°04' W 006°52'0 0.0
2015-Mar-29 05:16N 37°04' W 006°52'0 0.0
2015-Mar-29 03:07N 37°04' W 006°52'0 0.0
2015-Mar-29 02:22N 37°04' W 006°52'0 0.0
2015-Mar-29 01:31N 37°04' W 006°52'0 0.0
2015-Mar-29 00:25N 37°04' W 006°52'  
2015-Mar-25 00:16N 29°06' W 014°21'2011.1
2015-Mar-24 22:27N 28°50' W 014°34'1011.2
2015-Mar-24 21:33N 28°41' W 014°40'1211.9
2015-Mar-24 20:33N 28°33' W 014°49'1212.2
2015-Mar-24 19:33N 28°24' W 014°59'1212.2
2015-Mar-24 18:33N 28°15' W 015°09'1111.3
2015-Mar-24 17:33N 28°08' W 015°18'6 5.4
2015-Mar-24 16:30N 28°08' W 015°25'0 0.0
2015-Mar-24 15:30N 28°08' W 015°25'0 0.0
2015-Mar-24 14:33N 28°08' W 015°25'0 0.0
2015-Mar-24 13:33N 28°08' W 015°25'0 0.0
2015-Mar-24 12:33N 28°08' W 015°25'0 0.0
2015-Mar-24 11:33N 28°08' W 015°25'0 0.0
2015-Mar-24 10:33N 28°08' W 015°25'0 0.0
2015-Mar-24 09:33N 28°08' W 015°25'0 0.0
2015-Mar-24 08:21N 28°08' W 015°25'0 0.0
2015-Mar-24 07:24N 28°08' W 015°25'0 0.0
2015-Mar-24 06:27N 28°08' W 015°25'0 0.0
2015-Mar-24 05:24N 28°08' W 015°25'0 0.0
2015-Mar-24 04:27N 28°08' W 015°25'0 0.0
2015-Mar-24 03:30N 28°08' W 015°25'0 0.0
2015-Mar-24 02:30N 28°08' W 015°25'0 0.0
2015-Mar-24 01:30N 28°08' W 015°25'0 0.0
2015-Mar-24 00:30N 28°08' W 015°25'0 0.0
2015-Mar-23 23:33N 28°08' W 015°25'0 0.0
2015-Mar-23 22:33N 28°08' W 015°25'0 0.0
2015-Mar-23 21:33N 28°08' W 015°25'0 0.0
2015-Mar-23 20:33N 28°08' W 015°25'0 0.0
2015-Mar-23 19:33N 28°08' W 015°25'0 0.0
2015-Mar-23 18:33N 28°08' W 015°25'0 0.0
2015-Mar-23 17:27N 28°08' W 015°25'0 0.0
2015-Mar-23 16:27N 28°08' W 015°25'0 0.0
2015-Mar-23 15:27N 28°08' W 015°25'0 0.0
2015-Mar-23 14:27N 28°08' W 015°25'0 0.0
2015-Mar-23 13:30N 28°08' W 015°25'0 0.0
2015-Mar-23 12:27N 28°08' W 015°25'0 0.0
2015-Mar-23 11:30N 28°08' W 015°25'0 0.0
2015-Mar-23 10:33N 28°08' W 015°25'0 0.0
2015-Mar-23 09:33N 28°08' W 015°25'0 0.0
2015-Mar-23 08:33N 28°08' W 015°25'0 0.0
2015-Mar-23 07:33N 28°08' W 015°25'1 1.1
2015-Mar-23 06:33N 28°07' W 015°24'1 0.8
2015-Mar-23 05:34N 28°07' W 015°24'0 0.0
2015-Mar-23 04:33N 28°07' W 015°24'0 0.0
2015-Mar-23 03:33N 28°07' W 015°24'0 0.1
2015-Mar-23 02:33N 28°07' W 015°24'0 0.0
2015-Mar-23 01:33N 28°07' W 015°24'0 0.0
2015-Mar-23 00:33N 28°07' W 015°24'0 0.0
2015-Mar-22 23:33N 28°07' W 015°24'0 0.1
2015-Mar-22 22:33N 28°07' W 015°24'0 0.1
2015-Mar-22 21:33N 28°08' W 015°24'3 3.0
2015-Mar-22 20:34N 28°07' W 015°20'1010.2
2015-Mar-22 19:33N 28°09' W 015°09'1111.3
2015-Mar-22 18:34N 28°15' W 014°58'1313.1
2015-Mar-22 17:34N 28°26' W 014°51'1313.3
2015-Mar-22 16:33N 28°39' W 014°45'1613.4
2015-Mar-22 15:24N 28°53' W 014°37'62412.4
2015-Mar-20 13:13N 35°58' W 005°36'710.7
2015-Mar-20 12:34N 35°60' W 005°28'7 7.3
2015-Mar-20 11:34N 36°05' W 005°21'6 5.6
2015-Mar-20 10:29N 36°11' W 005°24'0 0.0
2015-Mar-20 09:11N 36°11' W 005°24'0 0.0
2015-Mar-20 07:23N 36°11' W 005°24'0 0.0
2015-Mar-20 06:29N 36°11' W 005°24'0 0.0
2015-Mar-20 04:29N 36°11' W 005°24'0 0.0
2015-Mar-20 03:11N 36°11' W 005°24'0 0.0
2015-Mar-20 02:23N 36°11' W 005°24'0 0.0
2015-Mar-20 01:23N 36°11' W 005°24'0 0.0
2015-Mar-19 23:11N 36°11' W 005°24'0 0.0
2015-Mar-19 20:23N 36°11' W 005°24'0 0.0
2015-Mar-19 08:33N 36°11' W 005°24'  
Track history (hours):
 
Tides and Currents Weather Stations Pressure Air Temp Water Temp Dewpoint Dewpoint Depression Visibility Wind Speed Wind Dir Waves Ship Positions

Iblea

Last reported at 2015-Mar-29 08:22 UTC. Time now 2015-Mar-30 20:04 UTC.
Position N 37°04' W 006°52'.

Length 176 m; draft 7.3 m.

Type: Ship (hazmat cat C). MMSI: 247087700.

Date/timePositionNaut miles runAvg speedWind from/ knotsBaromVisibWave heightAir tempDewpointWater temp
2015-Mar-29 08:22N 37°04' W 006°52'0 0.0
2015-Mar-29 07:28N 37°04' W 006°52'0 0.0
2015-Mar-29 06:28N 37°04' W 006°52'0 0.0
2015-Mar-29 05:16N 37°04' W 006°52'0 0.0
2015-Mar-29 03:07N 37°04' W 006°52'0 0.0
2015-Mar-29 02:22N 37°04' W 006°52'0 0.0
2015-Mar-29 01:31N 37°04' W 006°52'0 0.0
2015-Mar-29 00:25N 37°04' W 006°52'  
2015-Mar-25 00:16N 29°06' W 014°21'2011.1
2015-Mar-24 22:27N 28°50' W 014°34'1011.2
2015-Mar-24 21:33N 28°41' W 014°40'1211.9
2015-Mar-24 20:33N 28°33' W 014°49'1212.2
2015-Mar-24 19:33N 28°24' W 014°59'1212.2
2015-Mar-24 18:33N 28°15' W 015°09'1111.3
2015-Mar-24 17:33N 28°08' W 015°18'6 5.4
2015-Mar-24 16:30N 28°08' W 015°25'0 0.0
2015-Mar-24 15:30N 28°08' W 015°25'0 0.0
2015-Mar-24 14:33N 28°08' W 015°25'0 0.0
2015-Mar-24 13:33N 28°08' W 015°25'0 0.0
2015-Mar-24 12:33N 28°08' W 015°25'0 0.0
2015-Mar-24 11:33N 28°08' W 015°25'0 0.0
2015-Mar-24 10:33N 28°08' W 015°25'0 0.0
2015-Mar-24 09:33N 28°08' W 015°25'0 0.0
2015-Mar-24 08:21N 28°08' W 015°25'0 0.0
2015-Mar-24 07:24N 28°08' W 015°25'0 0.0
2015-Mar-24 06:27N 28°08' W 015°25'0 0.0
2015-Mar-24 05:24N 28°08' W 015°25'0 0.0
2015-Mar-24 04:27N 28°08' W 015°25'0 0.0
2015-Mar-24 03:30N 28°08' W 015°25'0 0.0
2015-Mar-24 02:30N 28°08' W 015°25'0 0.0
2015-Mar-24 01:30N 28°08' W 015°25'0 0.0
2015-Mar-24 00:30N 28°08' W 015°25'0 0.0
2015-Mar-23 23:33N 28°08' W 015°25'0 0.0
2015-Mar-23 22:33N 28°08' W 015°25'0 0.0
2015-Mar-23 21:33N 28°08' W 015°25'0 0.0
2015-Mar-23 20:33N 28°08' W 015°25'0 0.0
2015-Mar-23 19:33N 28°08' W 015°25'0 0.0
2015-Mar-23 18:33N 28°08' W 015°25'0 0.0
2015-Mar-23 17:27N 28°08' W 015°25'0 0.0
2015-Mar-23 16:27N 28°08' W 015°25'0 0.0
2015-Mar-23 15:27N 28°08' W 015°25'0 0.0
2015-Mar-23 14:27N 28°08' W 015°25'0 0.0
2015-Mar-23 13:30N 28°08' W 015°25'0 0.0
2015-Mar-23 12:27N 28°08' W 015°25'0 0.0
2015-Mar-23 11:30N 28°08' W 015°25'0 0.0
2015-Mar-23 10:33N 28°08' W 015°25'0 0.0
2015-Mar-23 09:33N 28°08' W 015°25'0 0.0
2015-Mar-23 08:33N 28°08' W 015°25'0 0.0
2015-Mar-23 07:33N 28°08' W 015°25'1 1.1
2015-Mar-23 06:33N 28°07' W 015°24'1 0.8
2015-Mar-23 05:34N 28°07' W 015°24'0 0.0
2015-Mar-23 04:33N 28°07' W 015°24'0 0.0
2015-Mar-23 03:33N 28°07' W 015°24'0 0.1
2015-Mar-23 02:33N 28°07' W 015°24'0 0.0
2015-Mar-23 01:33N 28°07' W 015°24'0 0.0
2015-Mar-23 00:33N 28°07' W 015°24'0 0.0
2015-Mar-22 23:33N 28°07' W 015°24'0 0.1
2015-Mar-22 22:33N 28°07' W 015°24'0 0.1
2015-Mar-22 21:33N 28°08' W 015°24'3 3.0
2015-Mar-22 20:34N 28°07' W 015°20'1010.2
2015-Mar-22 19:33N 28°09' W 015°09'1111.3
2015-Mar-22 18:34N 28°15' W 014°58'1313.1
2015-Mar-22 17:34N 28°26' W 014°51'1313.3
2015-Mar-22 16:33N 28°39' W 014°45'1613.4
2015-Mar-22 15:24N 28°53' W 014°37'62412.4
2015-Mar-20 13:13N 35°58' W 005°36'710.7
2015-Mar-20 12:34N 35°60' W 005°28'7 7.3
2015-Mar-20 11:34N 36°05' W 005°21'6 5.6
2015-Mar-20 10:29N 36°11' W 005°24'0 0.0
2015-Mar-20 09:11N 36°11' W 005°24'0 0.0
2015-Mar-20 07:23N 36°11' W 005°24'0 0.0
2015-Mar-20 06:29N 36°11' W 005°24'0 0.0
2015-Mar-20 04:29N 36°11' W 005°24'0 0.0
2015-Mar-20 03:11N 36°11' W 005°24'0 0.0
2015-Mar-20 02:23N 36°11' W 005°24'0 0.0
2015-Mar-20 01:23N 36°11' W 005°24'0 0.0
2015-Mar-19 23:11N 36°11' W 005°24'0 0.0
2015-Mar-19 20:23N 36°11' W 005°24'0 0.0
2015-Mar-19 08:33N 36°11' W 005°24'  

Dump ship's entire track history